sensor_id;sensor_type;location;lat;lon;timestamp;P1;durP1;ratioP1;P2;durP2;ratioP2
38240;SDS011;24037;49.536;8.500;2023-04-15T00:01:48;6.20;;;3.13;;
38240;SDS011;24037;49.536;8.500;2023-04-15T00:04:14;5.38;;;2.22;;
38240;SDS011;24037;49.536;8.500;2023-04-15T00:06:41;6.75;;;2.35;;
38240;SDS011;24037;49.536;8.500;2023-04-15T00:09:07;5.95;;;3.13;;
38240;SDS011;24037;49.536;8.500;2023-04-15T00:11:33;5.57;;;2.58;;
38240;SDS011;24037;49.536;8.500;2023-04-15T00:13:59;3.92;;;2.45;;
38240;SDS011;24037;49.536;8.500;2023-04-15T00:16:25;5.75;;;2.85;;
38240;SDS011;24037;49.536;8.500;2023-04-15T00:18:52;7.45;;;3.22;;
38240;SDS011;24037;49.536;8.500;2023-04-15T00:21:18;7.30;;;3.53;;
38240;SDS011;24037;49.536;8.500;2023-04-15T00:23:45;4.47;;;2.75;;
38240;SDS011;24037;49.536;8.500;2023-04-15T00:26:14;8.02;;;3.33;;
38240;SDS011;24037;49.536;8.500;2023-04-15T00:28:42;7.15;;;3.35;;
38240;SDS011;24037;49.536;8.500;2023-04-15T00:31:08;8.98;;;2.75;;
38240;SDS011;24037;49.536;8.500;2023-04-15T00:33:35;4.40;;;2.40;;
38240;SDS011;24037;49.536;8.500;2023-04-15T00:36:01;4.45;;;2.03;;
38240;SDS011;24037;49.536;8.500;2023-04-15T00:38:28;7.30;;;3.05;;
38240;SDS011;24037;49.536;8.500;2023-04-15T00:40:54;8.48;;;2.75;;
38240;SDS011;24037;49.536;8.500;2023-04-15T00:43:21;5.20;;;2.67;;
38240;SDS011;24037;49.536;8.500;2023-04-15T00:45:47;5.00;;;2.45;;
38240;SDS011;24037;49.536;8.500;2023-04-15T00:48:14;5.40;;;2.80;;
38240;SDS011;24037;49.536;8.500;2023-04-15T00:50:41;5.50;;;3.00;;
38240;SDS011;24037;49.536;8.500;2023-04-15T00:53:07;6.30;;;2.63;;
38240;SDS011;24037;49.536;8.500;2023-04-15T00:55:33;7.43;;;3.45;;
38240;SDS011;24037;49.536;8.500;2023-04-15T00:58:00;8.90;;;3.65;;
38240;SDS011;24037;49.536;8.500;2023-04-15T01:00:26;7.38;;;3.47;;
38240;SDS011;24037;49.536;8.500;2023-04-15T01:02:53;6.30;;;3.13;;
38240;SDS011;24037;49.536;8.500;2023-04-15T01:05:19;8.95;;;3.10;;
38240;SDS011;24037;49.536;8.500;2023-04-15T01:07:47;8.90;;;5.43;;
38240;SDS011;24037;49.536;8.500;2023-04-15T01:10:13;8.57;;;3.92;;
38240;SDS011;24037;49.536;8.500;2023-04-15T01:12:40;7.13;;;3.78;;
38240;SDS011;24037;49.536;8.500;2023-04-15T01:15:07;6.97;;;3.60;;
38240;SDS011;24037;49.536;8.500;2023-04-15T01:17:35;7.00;;;3.60;;
38240;SDS011;24037;49.536;8.500;2023-04-15T01:20:01;6.32;;;2.80;;
38240;SDS011;24037;49.536;8.500;2023-04-15T01:22:29;12.70;;;3.58;;
38240;SDS011;24037;49.536;8.500;2023-04-15T01:25:11;8.50;;;4.68;;
38240;SDS011;24037;49.536;8.500;2023-04-15T01:27:42;7.15;;;3.28;;
38240;SDS011;24037;49.536;8.500;2023-04-15T01:30:09;10.75;;;3.20;;
38240;SDS011;24037;49.536;8.500;2023-04-15T01:32:36;9.68;;;3.30;;
38240;SDS011;24037;49.536;8.500;2023-04-15T01:35:02;5.03;;;2.80;;
38240;SDS011;24037;49.536;8.500;2023-04-15T01:37:28;9.38;;;3.00;;
38240;SDS011;24037;49.536;8.500;2023-04-15T01:39:55;8.57;;;3.60;;
38240;SDS011;24037;49.536;8.500;2023-04-15T01:42:22;9.70;;;4.80;;
38240;SDS011;24037;49.536;8.500;2023-04-15T01:44:49;10.88;;;3.75;;
38240;SDS011;24037;49.536;8.500;2023-04-15T01:47:15;7.22;;;3.67;;
38240;SDS011;24037;49.536;8.500;2023-04-15T01:49:42;12.10;;;6.03;;
38240;SDS011;24037;49.536;8.500;2023-04-15T01:52:08;8.95;;;5.22;;
38240;SDS011;24037;49.536;8.500;2023-04-15T01:54:34;10.05;;;4.93;;
38240;SDS011;24037;49.536;8.500;2023-04-15T01:57:01;7.20;;;4.68;;
38240;SDS011;24037;49.536;8.500;2023-04-15T01:59:29;9.00;;;3.97;;
38240;SDS011;24037;49.536;8.500;2023-04-15T02:01:56;10.50;;;5.00;;
38240;SDS011;24037;49.536;8.500;2023-04-15T02:04:22;6.88;;;4.55;;
38240;SDS011;24037;49.536;8.500;2023-04-15T02:06:49;10.60;;;4.93;;
38240;SDS011;24037;49.536;8.500;2023-04-15T02:09:15;8.40;;;4.60;;
38240;SDS011;24037;49.536;8.500;2023-04-15T02:11:44;8.65;;;4.20;;
38240;SDS011;24037;49.536;8.500;2023-04-15T02:14:10;9.30;;;4.28;;
38240;SDS011;24037;49.536;8.500;2023-04-15T02:16:37;6.35;;;4.35;;
38240;SDS011;24037;49.536;8.500;2023-04-15T02:19:03;10.07;;;4.53;;
38240;SDS011;24037;49.536;8.500;2023-04-15T02:21:29;10.02;;;3.80;;
38240;SDS011;24037;49.536;8.500;2023-04-15T02:23:55;6.47;;;3.47;;
38240;SDS011;24037;49.536;8.500;2023-04-15T02:26:22;11.30;;;4.15;;
38240;SDS011;24037;49.536;8.500;2023-04-15T02:28:49;10.18;;;4.82;;
38240;SDS011;24037;49.536;8.500;2023-04-15T02:31:16;11.55;;;6.60;;
38240;SDS011;24037;49.536;8.500;2023-04-15T02:33:42;14.32;;;6.18;;
38240;SDS011;24037;49.536;8.500;2023-04-15T02:36:08;9.20;;;5.72;;
38240;SDS011;24037;49.536;8.500;2023-04-15T02:38:37;8.68;;;4.82;;
38240;SDS011;24037;49.536;8.500;2023-04-15T02:41:07;11.18;;;4.00;;
38240;SDS011;24037;49.536;8.500;2023-04-15T02:43:36;6.65;;;3.60;;
38240;SDS011;24037;49.536;8.500;2023-04-15T02:46:04;8.40;;;3.92;;
38240;SDS011;24037;49.536;8.500;2023-04-15T02:48:31;8.07;;;4.18;;
38240;SDS011;24037;49.536;8.500;2023-04-15T02:51:10;10.63;;;4.75;;
38240;SDS011;24037;49.536;8.500;2023-04-15T02:53:37;8.55;;;3.85;;
38240;SDS011;24037;49.536;8.500;2023-04-15T02:56:03;8.75;;;3.53;;
38240;SDS011;24037;49.536;8.500;2023-04-15T02:58:30;6.53;;;4.13;;
38240;SDS011;24037;49.536;8.500;2023-04-15T03:00:56;13.38;;;4.47;;
38240;SDS011;24037;49.536;8.500;2023-04-15T03:03:23;11.93;;;4.25;;
38240;SDS011;24037;49.536;8.500;2023-04-15T03:05:49;10.68;;;4.85;;
38240;SDS011;24037;49.536;8.500;2023-04-15T03:08:16;7.35;;;3.80;;
38240;SDS011;24037;49.536;8.500;2023-04-15T03:10:42;5.75;;;3.53;;
38240;SDS011;24037;49.536;8.500;2023-04-15T03:13:08;6.97;;;4.13;;
38240;SDS011;24037;49.536;8.500;2023-04-15T03:15:34;9.25;;;3.72;;
38240;SDS011;24037;49.536;8.500;2023-04-15T03:18:01;8.13;;;3.83;;
38240;SDS011;24037;49.536;8.500;2023-04-15T03:20:27;8.30;;;4.38;;
38240;SDS011;24037;49.536;8.500;2023-04-15T03:22:53;9.13;;;4.35;;
38240;SDS011;24037;49.536;8.500;2023-04-15T03:25:21;6.63;;;3.80;;
38240;SDS011;24037;49.536;8.500;2023-04-15T03:27:48;6.07;;;3.75;;
38240;SDS011;24037;49.536;8.500;2023-04-15T03:30:14;9.10;;;3.70;;
38240;SDS011;24037;49.536;8.500;2023-04-15T03:32:40;6.88;;;3.67;;
38240;SDS011;24037;49.536;8.500;2023-04-15T03:35:07;8.20;;;4.43;;
38240;SDS011;24037;49.536;8.500;2023-04-15T03:37:34;7.28;;;3.83;;
38240;SDS011;24037;49.536;8.500;2023-04-15T03:40:00;7.90;;;3.53;;
38240;SDS011;24037;49.536;8.500;2023-04-15T03:42:26;6.95;;;4.03;;
38240;SDS011;24037;49.536;8.500;2023-04-15T03:44:53;6.18;;;3.70;;
38240;SDS011;24037;49.536;8.500;2023-04-15T03:47:19;9.52;;;4.13;;
38240;SDS011;24037;49.536;8.500;2023-04-15T03:49:45;9.45;;;4.38;;
38240;SDS011;24037;49.536;8.500;2023-04-15T03:52:11;6.70;;;4.18;;
38240;SDS011;24037;49.536;8.500;2023-04-15T03:54:37;7.15;;;3.97;;
38240;SDS011;24037;49.536;8.500;2023-04-15T03:57:03;8.45;;;3.70;;
38240;SDS011;24037;49.536;8.500;2023-04-15T03:59:30;7.10;;;3.47;;
38240;SDS011;24037;49.536;8.500;2023-04-15T04:01:56;9.05;;;3.70;;
38240;SDS011;24037;49.536;8.500;2023-04-15T04:04:22;8.50;;;4.05;;
38240;SDS011;24037;49.536;8.500;2023-04-15T04:06:48;7.22;;;3.42;;
38240;SDS011;24037;49.536;8.500;2023-04-15T04:09:14;7.63;;;3.50;;
38240;SDS011;24037;49.536;8.500;2023-04-15T04:11:40;9.07;;;4.32;;
38240;SDS011;24037;49.536;8.500;2023-04-15T04:14:06;12.35;;;4.72;;
38240;SDS011;24037;49.536;8.500;2023-04-15T04:16:33;8.13;;;4.10;;
38240;SDS011;24037;49.536;8.500;2023-04-15T04:18:59;8.65;;;4.10;;
38240;SDS011;24037;49.536;8.500;2023-04-15T04:21:25;7.05;;;4.00;;
38240;SDS011;24037;49.536;8.500;2023-04-15T04:23:52;6.80;;;4.15;;
38240;SDS011;24037;49.536;8.500;2023-04-15T04:26:18;7.93;;;4.07;;
38240;SDS011;24037;49.536;8.500;2023-04-15T04:28:44;7.68;;;4.50;;
38240;SDS011;24037;49.536;8.500;2023-04-15T04:31:10;6.43;;;4.07;;
38240;SDS011;24037;49.536;8.500;2023-04-15T04:33:36;6.00;;;4.07;;
38240;SDS011;24037;49.536;8.500;2023-04-15T04:36:02;10.45;;;4.85;;
38240;SDS011;24037;49.536;8.500;2023-04-15T04:38:29;9.43;;;5.80;;
38240;SDS011;24037;49.536;8.500;2023-04-15T04:40:55;7.53;;;4.45;;
38240;SDS011;24037;49.536;8.500;2023-04-15T04:43:21;8.40;;;4.75;;
38240;SDS011;24037;49.536;8.500;2023-04-15T04:45:47;7.65;;;4.35;;
38240;SDS011;24037;49.536;8.500;2023-04-15T04:48:13;7.00;;;4.45;;
38240;SDS011;24037;49.536;8.500;2023-04-15T04:50:40;9.48;;;5.22;;
38240;SDS011;24037;49.536;8.500;2023-04-15T04:53:06;10.30;;;4.75;;
38240;SDS011;24037;49.536;8.500;2023-04-15T04:55:32;7.40;;;4.40;;
38240;SDS011;24037;49.536;8.500;2023-04-15T04:58:01;8.50;;;4.30;;
38240;SDS011;24037;49.536;8.500;2023-04-15T05:00:30;7.95;;;3.53;;
38240;SDS011;24037;49.536;8.500;2023-04-15T05:02:56;7.90;;;4.40;;
38240;SDS011;24037;49.536;8.500;2023-04-15T05:05:23;7.95;;;4.93;;
38240;SDS011;24037;49.536;8.500;2023-04-15T05:07:49;8.18;;;5.38;;
38240;SDS011;24037;49.536;8.500;2023-04-15T05:10:15;10.38;;;5.40;;
38240;SDS011;24037;49.536;8.500;2023-04-15T05:12:42;11.13;;;5.30;;
38240;SDS011;24037;49.536;8.500;2023-04-15T05:15:08;10.75;;;5.95;;
38240;SDS011;24037;49.536;8.500;2023-04-15T05:17:35;10.63;;;4.82;;
38240;SDS011;24037;49.536;8.500;2023-04-15T05:20:01;14.27;;;6.63;;
38240;SDS011;24037;49.536;8.500;2023-04-15T05:22:28;8.75;;;5.22;;
38240;SDS011;24037;49.536;8.500;2023-04-15T05:24:54;8.90;;;5.40;;
38240;SDS011;24037;49.536;8.500;2023-04-15T05:27:20;10.20;;;5.20;;
38240;SDS011;24037;49.536;8.500;2023-04-15T05:29:48;8.90;;;6.05;;
38240;SDS011;24037;49.536;8.500;2023-04-15T05:32:14;11.65;;;5.68;;
38240;SDS011;24037;49.536;8.500;2023-04-15T05:34:40;7.03;;;4.30;;
38240;SDS011;24037;49.536;8.500;2023-04-15T05:37:06;5.63;;;3.83;;
38240;SDS011;24037;49.536;8.500;2023-04-15T05:39:33;7.30;;;3.90;;
38240;SDS011;24037;49.536;8.500;2023-04-15T05:41:59;5.93;;;4.00;;
38240;SDS011;24037;49.536;8.500;2023-04-15T05:44:25;8.38;;;3.78;;
38240;SDS011;24037;49.536;8.500;2023-04-15T05:46:51;5.13;;;3.78;;
38240;SDS011;24037;49.536;8.500;2023-04-15T05:49:17;6.85;;;3.88;;
38240;SDS011;24037;49.536;8.500;2023-04-15T05:51:43;6.80;;;3.40;;
38240;SDS011;24037;49.536;8.500;2023-04-15T05:54:11;8.02;;;4.32;;
38240;SDS011;24037;49.536;8.500;2023-04-15T05:56:37;10.68;;;4.18;;
38240;SDS011;24037;49.536;8.500;2023-04-15T05:59:03;5.20;;;3.33;;
38240;SDS011;24037;49.536;8.500;2023-04-15T06:01:30;6.20;;;3.30;;
38240;SDS011;24037;49.536;8.500;2023-04-15T06:03:56;9.75;;;4.15;;
38240;SDS011;24037;49.536;8.500;2023-04-15T06:06:22;7.28;;;3.47;;
38240;SDS011;24037;49.536;8.500;2023-04-15T06:08:48;7.57;;;4.28;;
38240;SDS011;24037;49.536;8.500;2023-04-15T06:11:14;10.20;;;4.22;;
38240;SDS011;24037;49.536;8.500;2023-04-15T06:13:41;10.63;;;5.32;;
38240;SDS011;24037;49.536;8.500;2023-04-15T06:16:07;5.18;;;3.45;;
38240;SDS011;24037;49.536;8.500;2023-04-15T06:18:33;5.95;;;3.50;;
38240;SDS011;24037;49.536;8.500;2023-04-15T06:20:59;7.10;;;3.88;;
38240;SDS011;24037;49.536;8.500;2023-04-15T06:23:25;7.72;;;4.45;;
38240;SDS011;24037;49.536;8.500;2023-04-15T06:25:52;6.38;;;4.47;;
38240;SDS011;24037;49.536;8.500;2023-04-15T06:28:18;11.10;;;4.57;;
38240;SDS011;24037;49.536;8.500;2023-04-15T06:30:44;9.07;;;4.50;;
38240;SDS011;24037;49.536;8.500;2023-04-15T06:33:10;6.40;;;4.05;;
38240;SDS011;24037;49.536;8.500;2023-04-15T06:35:37;7.60;;;4.18;;
38240;SDS011;24037;49.536;8.500;2023-04-15T06:38:03;8.10;;;4.22;;
38240;SDS011;24037;49.536;8.500;2023-04-15T06:40:30;8.60;;;4.65;;
38240;SDS011;24037;49.536;8.500;2023-04-15T06:42:56;6.65;;;4.20;;
38240;SDS011;24037;49.536;8.500;2023-04-15T06:45:22;12.00;;;4.45;;
38240;SDS011;24037;49.536;8.500;2023-04-15T06:47:48;7.57;;;4.50;;
38240;SDS011;24037;49.536;8.500;2023-04-15T06:50:14;7.18;;;4.57;;
38240;SDS011;24037;49.536;8.500;2023-04-15T06:52:40;8.20;;;5.65;;
38240;SDS011;24037;49.536;8.500;2023-04-15T06:55:07;10.18;;;6.18;;
38240;SDS011;24037;49.536;8.500;2023-04-15T06:57:33;11.13;;;5.43;;
38240;SDS011;24037;49.536;8.500;2023-04-15T06:59:59;7.50;;;4.60;;
38240;SDS011;24037;49.536;8.500;2023-04-15T07:02:25;10.18;;;3.95;;
38240;SDS011;24037;49.536;8.500;2023-04-15T07:04:51;4.53;;;3.67;;
38240;SDS011;24037;49.536;8.500;2023-04-15T07:07:18;6.28;;;4.63;;
38240;SDS011;24037;49.536;8.500;2023-04-15T07:09:45;7.30;;;5.10;;
38240;SDS011;24037;49.536;8.500;2023-04-15T07:12:11;9.25;;;4.75;;
38240;SDS011;24037;49.536;8.500;2023-04-15T07:14:38;8.25;;;4.63;;
38240;SDS011;24037;49.536;8.500;2023-04-15T07:17:04;8.38;;;4.90;;
38240;SDS011;24037;49.536;8.500;2023-04-15T07:19:30;5.43;;;4.03;;
38240;SDS011;24037;49.536;8.500;2023-04-15T07:21:56;8.85;;;4.38;;
38240;SDS011;24037;49.536;8.500;2023-04-15T07:24:22;8.85;;;4.90;;
38240;SDS011;24037;49.536;8.500;2023-04-15T07:26:54;6.18;;;4.20;;
38240;SDS011;24037;49.536;8.500;2023-04-15T07:29:22;7.15;;;4.15;;
38240;SDS011;24037;49.536;8.500;2023-04-15T07:31:48;7.82;;;4.13;;
38240;SDS011;24037;49.536;8.500;2023-04-15T07:34:14;7.18;;;4.55;;
38240;SDS011;24037;49.536;8.500;2023-04-15T07:36:41;9.75;;;4.32;;
38240;SDS011;24037;49.536;8.500;2023-04-15T07:39:07;7.47;;;5.60;;
38240;SDS011;24037;49.536;8.500;2023-04-15T07:41:33;8.57;;;4.65;;
38240;SDS011;24037;49.536;8.500;2023-04-15T07:44:01;6.28;;;4.53;;
38240;SDS011;24037;49.536;8.500;2023-04-15T07:46:27;5.15;;;3.95;;
38240;SDS011;24037;49.536;8.500;2023-04-15T07:48:53;8.68;;;4.63;;
38240;SDS011;24037;49.536;8.500;2023-04-15T07:51:19;8.00;;;4.43;;
38240;SDS011;24037;49.536;8.500;2023-04-15T07:53:46;7.30;;;4.68;;
38240;SDS011;24037;49.536;8.500;2023-04-15T07:56:13;5.47;;;4.28;;
38240;SDS011;24037;49.536;8.500;2023-04-15T07:58:40;5.57;;;3.72;;
38240;SDS011;24037;49.536;8.500;2023-04-15T08:01:07;7.50;;;4.40;;
38240;SDS011;24037;49.536;8.500;2023-04-15T08:03:33;9.95;;;4.20;;
38240;SDS011;24037;49.536;8.500;2023-04-15T08:05:59;9.70;;;4.57;;
38240;SDS011;24037;49.536;8.500;2023-04-15T08:08:26;8.30;;;4.13;;
38240;SDS011;24037;49.536;8.500;2023-04-15T08:10:52;7.55;;;4.47;;
38240;SDS011;24037;49.536;8.500;2023-04-15T08:13:18;7.13;;;4.40;;
38240;SDS011;24037;49.536;8.500;2023-04-15T08:15:45;6.20;;;4.07;;
38240;SDS011;24037;49.536;8.500;2023-04-15T08:18:18;9.25;;;3.70;;
38240;SDS011;24037;49.536;8.500;2023-04-15T08:20:44;6.88;;;3.22;;
38240;SDS011;24037;49.536;8.500;2023-04-15T08:23:11;5.25;;;3.45;;
38240;SDS011;24037;49.536;8.500;2023-04-15T08:25:37;5.15;;;3.00;;
38240;SDS011;24037;49.536;8.500;2023-04-15T08:28:03;8.13;;;3.13;;
38240;SDS011;24037;49.536;8.500;2023-04-15T08:30:32;7.65;;;3.03;;
38240;SDS011;24037;49.536;8.500;2023-04-15T08:32:59;3.55;;;2.78;;
38240;SDS011;24037;49.536;8.500;2023-04-15T08:35:25;4.00;;;2.38;;
38240;SDS011;24037;49.536;8.500;2023-04-15T08:37:51;5.55;;;2.60;;
38240;SDS011;24037;49.536;8.500;2023-04-15T08:40:17;7.90;;;2.78;;
38240;SDS011;24037;49.536;8.500;2023-04-15T08:42:45;7.60;;;2.22;;
38240;SDS011;24037;49.536;8.500;2023-04-15T08:45:16;4.05;;;2.15;;
38240;SDS011;24037;49.536;8.500;2023-04-15T08:47:43;5.18;;;2.83;;
38240;SDS011;24037;49.536;8.500;2023-04-15T08:50:11;4.28;;;2.53;;
38240;SDS011;24037;49.536;8.500;2023-04-15T08:52:39;6.07;;;2.40;;
38240;SDS011;24037;49.536;8.500;2023-04-15T08:55:06;8.50;;;3.05;;
38240;SDS011;24037;49.536;8.500;2023-04-15T08:57:32;4.38;;;2.53;;
38240;SDS011;24037;49.536;8.500;2023-04-15T09:00:00;3.58;;;1.92;;
38240;SDS011;24037;49.536;8.500;2023-04-15T09:02:28;3.45;;;1.95;;
38240;SDS011;24037;49.536;8.500;2023-04-15T09:04:55;5.03;;;2.17;;
38240;SDS011;24037;49.536;8.500;2023-04-15T09:07:21;3.00;;;1.75;;
38240;SDS011;24037;49.536;8.500;2023-04-15T09:09:47;3.70;;;2.72;;
38240;SDS011;24037;49.536;8.500;2023-04-15T09:12:13;2.95;;;2.05;;
38240;SDS011;24037;49.536;8.500;2023-04-15T09:14:42;4.70;;;3.08;;
38240;SDS011;24037;49.536;8.500;2023-04-15T09:17:10;3.53;;;1.65;;
38240;SDS011;24037;49.536;8.500;2023-04-15T09:19:36;5.28;;;1.83;;
38240;SDS011;24037;49.536;8.500;2023-04-15T09:22:02;3.78;;;1.80;;
38240;SDS011;24037;49.536;8.500;2023-04-15T09:24:36;4.40;;;2.05;;
38240;SDS011;24037;49.536;8.500;2023-04-15T09:27:04;3.40;;;1.63;;
38240;SDS011;24037;49.536;8.500;2023-04-15T09:29:30;5.07;;;2.05;;
38240;SDS011;24037;49.536;8.500;2023-04-15T09:32:08;3.30;;;1.92;;
38240;SDS011;24037;49.536;8.500;2023-04-15T09:34:38;3.88;;;2.13;;
38240;SDS011;24037;49.536;8.500;2023-04-15T09:37:04;3.78;;;2.00;;
38240;SDS011;24037;49.536;8.500;2023-04-15T09:39:50;3.80;;;1.80;;
38240;SDS011;24037;49.536;8.500;2023-04-15T09:42:17;3.58;;;2.10;;
38240;SDS011;24037;49.536;8.500;2023-04-15T09:44:51;5.55;;;2.60;;
38240;SDS011;24037;49.536;8.500;2023-04-15T09:47:30;3.53;;;2.80;;
38240;SDS011;24037;49.536;8.500;2023-04-15T09:49:57;4.03;;;2.53;;
38240;SDS011;24037;49.536;8.500;2023-04-15T09:52:24;4.60;;;3.55;;
38240;SDS011;24037;49.536;8.500;2023-04-15T09:54:52;6.68;;;2.50;;
38240;SDS011;24037;49.536;8.500;2023-04-15T09:57:21;5.88;;;3.58;;
38240;SDS011;24037;49.536;8.500;2023-04-15T09:59:49;9.55;;;3.80;;
38240;SDS011;24037;49.536;8.500;2023-04-15T10:02:18;6.47;;;4.57;;
38240;SDS011;24037;49.536;8.500;2023-04-15T10:04:47;5.50;;;4.00;;
38240;SDS011;24037;49.536;8.500;2023-04-15T10:07:14;5.65;;;4.60;;
38240;SDS011;24037;49.536;8.500;2023-04-15T10:09:45;7.97;;;5.05;;
38240;SDS011;24037;49.536;8.500;2023-04-15T10:12:12;7.32;;;4.63;;
38240;SDS011;24037;49.536;8.500;2023-04-15T10:14:41;5.88;;;4.10;;
38240;SDS011;24037;49.536;8.500;2023-04-15T10:17:09;6.88;;;2.97;;
38240;SDS011;24037;49.536;8.500;2023-04-15T10:19:39;9.07;;;3.15;;
38240;SDS011;24037;49.536;8.500;2023-04-15T10:22:05;5.00;;;2.80;;
38240;SDS011;24037;49.536;8.500;2023-04-15T10:24:33;5.13;;;2.40;;
38240;SDS011;24037;49.536;8.500;2023-04-15T10:26:59;6.40;;;2.90;;
38240;SDS011;24037;49.536;8.500;2023-04-15T10:29:29;5.20;;;2.67;;
38240;SDS011;24037;49.536;8.500;2023-04-15T10:31:55;7.13;;;2.60;;
38240;SDS011;24037;49.536;8.500;2023-04-15T10:34:23;5.50;;;2.88;;
38240;SDS011;24037;49.536;8.500;2023-04-15T10:36:50;3.97;;;2.72;;
38240;SDS011;24037;49.536;8.500;2023-04-15T10:42:08;4.30;;;2.22;;
38240;SDS011;24037;49.536;8.500;2023-04-15T10:44:38;7.53;;;3.63;;
38240;SDS011;24037;49.536;8.500;2023-04-15T10:47:12;4.45;;;2.42;;
38240;SDS011;24037;49.536;8.500;2023-04-15T10:49:47;5.47;;;2.92;;
38240;SDS011;24037;49.536;8.500;2023-04-15T10:52:21;6.72;;;3.22;;
38240;SDS011;24037;49.536;8.500;2023-04-15T10:54:48;4.03;;;2.75;;
38240;SDS011;24037;49.536;8.500;2023-04-15T10:57:16;4.35;;;2.25;;
38240;SDS011;24037;49.536;8.500;2023-04-15T11:02:41;4.68;;;2.10;;
38240;SDS011;24037;49.536;8.500;2023-04-15T11:05:11;3.33;;;1.50;;
38240;SDS011;24037;49.536;8.500;2023-04-15T11:07:54;2.35;;;1.48;;
38240;SDS011;24037;49.536;8.500;2023-04-15T11:12:56;3.92;;;1.45;;
38240;SDS011;24037;49.536;8.500;2023-04-15T11:20:43;4.05;;;1.92;;
38240;SDS011;24037;49.536;8.500;2023-04-15T11:23:10;4.53;;;1.90;;
38240;SDS011;24037;49.536;8.500;2023-04-15T11:25:36;4.53;;;1.65;;
38240;SDS011;24037;49.536;8.500;2023-04-15T11:28:03;3.13;;;1.63;;
38240;SDS011;24037;49.536;8.500;2023-04-15T11:30:31;5.00;;;1.98;;
38240;SDS011;24037;49.536;8.500;2023-04-15T11:33:02;3.38;;;2.30;;
38240;SDS011;24037;49.536;8.500;2023-04-15T11:35:29;2.97;;;2.17;;
38240;SDS011;24037;49.536;8.500;2023-04-15T11:37:56;2.92;;;1.98;;
38240;SDS011;24037;49.536;8.500;2023-04-15T11:40:26;3.53;;;2.22;;
38240;SDS011;24037;49.536;8.500;2023-04-15T11:45:31;5.65;;;2.38;;
38240;SDS011;24037;49.536;8.500;2023-04-15T11:48:11;4.53;;;2.17;;
38240;SDS011;24037;49.536;8.500;2023-04-15T11:50:38;3.88;;;1.83;;
38240;SDS011;24037;49.536;8.500;2023-04-15T11:53:06;5.03;;;2.33;;
38240;SDS011;24037;49.536;8.500;2023-04-15T11:55:44;5.57;;;2.50;;
38240;SDS011;24037;49.536;8.500;2023-04-15T12:00:46;3.60;;;1.52;;
38240;SDS011;24037;49.536;8.500;2023-04-15T12:03:24;7.10;;;2.28;;
38240;SDS011;24037;49.536;8.500;2023-04-15T12:06:05;5.85;;;2.30;;
38240;SDS011;24037;49.536;8.500;2023-04-15T12:08:51;4.05;;;1.70;;
38240;SDS011;24037;49.536;8.500;2023-04-15T12:11:26;3.42;;;1.83;;
38240;SDS011;24037;49.536;8.500;2023-04-15T12:14:06;5.53;;;2.30;;
38240;SDS011;24037;49.536;8.500;2023-04-15T12:16:33;2.92;;;1.50;;
38240;SDS011;24037;49.536;8.500;2023-04-15T12:19:03;3.40;;;1.45;;
38240;SDS011;24037;49.536;8.500;2023-04-15T12:21:33;7.25;;;2.47;;
38240;SDS011;24037;49.536;8.500;2023-04-15T12:24:02;6.45;;;1.65;;
38240;SDS011;24037;49.536;8.500;2023-04-15T12:26:42;2.83;;;1.38;;
38240;SDS011;24037;49.536;8.500;2023-04-15T12:29:10;2.65;;;1.48;;
38240;SDS011;24037;49.536;8.500;2023-04-15T12:34:25;5.68;;;1.20;;
38240;SDS011;24037;49.536;8.500;2023-04-15T12:36:58;0.90;;;0.55;;
38240;SDS011;24037;49.536;8.500;2023-04-15T12:39:27;2.40;;;0.80;;
38240;SDS011;24037;49.536;8.500;2023-04-15T12:41:54;2.20;;;0.50;;
38240;SDS011;24037;49.536;8.500;2023-04-15T12:44:23;2.90;;;0.70;;
38240;SDS011;24037;49.536;8.500;2023-04-15T12:46:50;2.30;;;0.63;;
38240;SDS011;24037;49.536;8.500;2023-04-15T12:49:22;2.50;;;1.30;;
38240;SDS011;24037;49.536;8.500;2023-04-15T12:51:53;0.98;;;0.30;;
38240;SDS011;24037;49.536;8.500;2023-04-15T12:54:21;3.38;;;1.13;;
38240;SDS011;24037;49.536;8.500;2023-04-15T12:56:48;3.50;;;0.77;;
38240;SDS011;24037;49.536;8.500;2023-04-15T12:59:14;1.38;;;0.60;;
38240;SDS011;24037;49.536;8.500;2023-04-15T13:01:43;0.93;;;0.43;;
38240;SDS011;24037;49.536;8.500;2023-04-15T13:04:10;1.02;;;0.38;;
38240;SDS011;24037;49.536;8.500;2023-04-15T13:06:36;1.48;;;0.60;;
38240;SDS011;24037;49.536;8.500;2023-04-15T13:09:03;0.68;;;0.30;;
38240;SDS011;24037;49.536;8.500;2023-04-15T13:11:30;2.35;;;0.52;;
38240;SDS011;24037;49.536;8.500;2023-04-15T13:13:59;2.67;;;0.63;;
38240;SDS011;24037;49.536;8.500;2023-04-15T13:16:26;1.30;;;0.50;;
38240;SDS011;24037;49.536;8.500;2023-04-15T13:18:52;2.10;;;0.50;;
38240;SDS011;24037;49.536;8.500;2023-04-15T13:21:18;1.17;;;0.75;;
38240;SDS011;24037;49.536;8.500;2023-04-15T13:23:45;0.60;;;0.30;;
38240;SDS011;24037;49.536;8.500;2023-04-15T13:26:11;2.25;;;0.60;;
38240;SDS011;24037;49.536;8.500;2023-04-15T13:28:38;1.63;;;0.70;;
38240;SDS011;24037;49.536;8.500;2023-04-15T13:31:04;1.88;;;0.63;;
38240;SDS011;24037;49.536;8.500;2023-04-15T13:33:30;2.38;;;0.60;;
38240;SDS011;24037;49.536;8.500;2023-04-15T13:35:56;1.60;;;0.60;;
38240;SDS011;24037;49.536;8.500;2023-04-15T13:38:23;0.70;;;0.50;;
38240;SDS011;24037;49.536;8.500;2023-04-15T13:40:50;1.30;;;0.30;;
38240;SDS011;24037;49.536;8.500;2023-04-15T13:43:16;1.33;;;0.50;;
38240;SDS011;24037;49.536;8.500;2023-04-15T13:45:43;0.68;;;0.32;;
38240;SDS011;24037;49.536;8.500;2023-04-15T13:48:09;2.50;;;0.70;;
38240;SDS011;24037;49.536;8.500;2023-04-15T13:50:35;2.13;;;0.40;;
38240;SDS011;24037;49.536;8.500;2023-04-15T13:53:01;2.03;;;0.60;;
38240;SDS011;24037;49.536;8.500;2023-04-15T13:55:28;1.52;;;0.60;;
38240;SDS011;24037;49.536;8.500;2023-04-15T13:57:55;1.00;;;0.45;;
38240;SDS011;24037;49.536;8.500;2023-04-15T14:00:21;1.80;;;0.57;;
38240;SDS011;24037;49.536;8.500;2023-04-15T14:02:50;3.17;;;0.57;;
38240;SDS011;24037;49.536;8.500;2023-04-15T14:05:16;1.10;;;0.63;;
38240;SDS011;24037;49.536;8.500;2023-04-15T14:07:42;1.25;;;0.70;;
38240;SDS011;24037;49.536;8.500;2023-04-15T14:10:08;2.83;;;1.05;;
38240;SDS011;24037;49.536;8.500;2023-04-15T14:12:35;2.05;;;1.42;;
38240;SDS011;24037;49.536;8.500;2023-04-15T14:15:01;2.63;;;1.00;;
38240;SDS011;24037;49.536;8.500;2023-04-15T14:17:27;2.80;;;1.00;;
38240;SDS011;24037;49.536;8.500;2023-04-15T14:19:53;2.90;;;1.55;;
38240;SDS011;24037;49.536;8.500;2023-04-15T14:22:19;1.40;;;0.98;;
38240;SDS011;24037;49.536;8.500;2023-04-15T14:24:46;2.03;;;1.08;;
38240;SDS011;24037;49.536;8.500;2023-04-15T14:27:13;2.30;;;1.05;;
38240;SDS011;24037;49.536;8.500;2023-04-15T14:29:40;1.17;;;0.80;;
38240;SDS011;24037;49.536;8.500;2023-04-15T14:32:07;1.73;;;0.98;;
38240;SDS011;24037;49.536;8.500;2023-04-15T14:34:33;2.75;;;0.90;;
38240;SDS011;24037;49.536;8.500;2023-04-15T14:36:59;1.52;;;0.90;;
38240;SDS011;24037;49.536;8.500;2023-04-15T14:39:27;3.83;;;1.02;;
38240;SDS011;24037;49.536;8.500;2023-04-15T14:41:53;1.08;;;0.70;;
38240;SDS011;24037;49.536;8.500;2023-04-15T14:44:20;1.27;;;0.77;;
38240;SDS011;24037;49.536;8.500;2023-04-15T14:46:47;2.30;;;0.70;;
38240;SDS011;24037;49.536;8.500;2023-04-15T14:49:13;1.42;;;0.90;;
38240;SDS011;24037;49.536;8.500;2023-04-15T14:51:39;1.67;;;0.82;;
38240;SDS011;24037;49.536;8.500;2023-04-15T14:54:05;1.30;;;0.70;;
38240;SDS011;24037;49.536;8.500;2023-04-15T14:56:32;1.92;;;0.98;;
38240;SDS011;24037;49.536;8.500;2023-04-15T14:58:58;1.00;;;0.60;;
38240;SDS011;24037;49.536;8.500;2023-04-15T15:01:24;3.58;;;0.85;;
38240;SDS011;24037;49.536;8.500;2023-04-15T15:03:51;1.98;;;0.82;;
38240;SDS011;24037;49.536;8.500;2023-04-15T15:06:19;0.80;;;0.60;;
38240;SDS011;24037;49.536;8.500;2023-04-15T15:08:45;1.83;;;0.60;;